createdAt,value
2017-11-17T00:00:48.102Z,8.50
2017-11-17T00:03:22.637Z,8.50
2017-11-17T00:05:56.293Z,8.50
2017-11-17T00:08:29.950Z,8.50
2017-11-17T00:11:04.441Z,8.30
2017-11-17T00:13:38.167Z,8.20
2017-11-17T00:16:12.635Z,8.20
2017-11-17T00:18:46.246Z,8.10
2017-11-17T00:21:20.235Z,8.10
2017-11-17T00:23:53.983Z,8.10
2017-11-17T00:26:28.198Z,8.00
2017-11-17T00:29:01.931Z,8.10
2017-11-17T00:31:36.486Z,8.10
2017-11-17T00:34:10.832Z,8.10
2017-11-17T00:36:44.486Z,8.10
2017-11-17T00:39:19.058Z,8.20
2017-11-17T00:41:53.249Z,8.20
2017-11-17T00:44:27.054Z,8.30
2017-11-17T00:47:00.750Z,8.30
2017-11-17T00:49:35.221Z,8.40
2017-11-17T00:52:08.957Z,8.40
2017-11-17T00:54:42.726Z,8.40
2017-11-17T00:57:16.459Z,8.40
2017-11-17T00:59:50.185Z,8.50
2017-11-17T01:02:23.874Z,8.50
2017-11-17T01:04:57.546Z,8.40
2017-11-17T01:07:31.307Z,8.40
2017-11-17T01:10:05.159Z,8.40
2017-11-17T01:12:38.786Z,8.50
2017-11-17T01:15:12.562Z,8.50
2017-11-17T01:17:46.986Z,8.50
2017-11-17T01:20:20.684Z,8.50
2017-11-17T01:22:54.335Z,8.50
2017-11-17T01:25:28.090Z,8.50
2017-11-17T01:28:02.638Z,8.50
2017-11-17T01:30:36.390Z,8.50
2017-11-17T01:33:11.161Z,8.50
2017-11-17T01:35:44.914Z,8.50
2017-11-17T01:38:18.719Z,8.50
2017-11-17T01:40:52.269Z,8.50
2017-11-17T01:43:25.980Z,8.50
2017-11-17T01:45:59.668Z,8.40
2017-11-17T01:48:33.347Z,8.40
2017-11-17T01:51:07.065Z,8.40
2017-11-17T01:53:40.774Z,8.40
2017-11-17T01:56:14.464Z,8.40
2017-11-17T01:58:48.041Z,8.40
2017-11-17T02:01:21.777Z,8.40
2017-11-17T02:03:55.476Z,8.40
2017-11-17T02:06:29.247Z,8.40
2017-11-17T02:09:02.930Z,8.40
2017-11-17T02:11:37.098Z,8.40
2017-11-17T02:14:10.737Z,8.40
2017-11-17T02:16:44.336Z,8.40
2017-11-17T02:19:18.121Z,8.40
2017-11-17T02:21:52.630Z,8.40
2017-11-17T02:24:26.232Z,8.30
2017-11-17T02:27:00.743Z,8.40
2017-11-17T02:29:34.478Z,8.40
2017-11-17T02:32:08.234Z,8.40
2017-11-17T02:34:41.987Z,8.40
2017-11-17T02:37:15.754Z,8.40
2017-11-17T02:39:49.374Z,8.40
2017-11-17T02:42:23.865Z,8.40
2017-11-17T02:44:57.544Z,8.40
2017-11-17T02:47:31.281Z,8.40
2017-11-17T02:50:04.877Z,8.30
2017-11-17T02:52:38.519Z,8.40
2017-11-17T02:55:12.178Z,8.30
2017-11-17T02:57:45.907Z,8.30
2017-11-17T03:00:19.691Z,8.30
2017-11-17T03:02:53.478Z,8.30
2017-11-17T03:05:27.247Z,8.30
2017-11-17T03:08:01.631Z,8.30
2017-11-17T03:10:35.265Z,8.30
2017-11-17T03:13:08.960Z,8.30
2017-11-17T03:15:42.547Z,8.30
2017-11-17T03:18:17.070Z,8.30
2017-11-17T03:20:50.850Z,8.30
2017-11-17T03:23:24.657Z,8.30
2017-11-17T03:25:58.363Z,8.30
2017-11-17T03:28:32.054Z,8.30
2017-11-17T03:31:05.803Z,8.30
2017-11-17T03:33:40.834Z,8.40
2017-11-17T03:36:14.605Z,8.40
2017-11-17T03:38:48.283Z,8.30
2017-11-17T03:41:22.034Z,8.40
2017-11-17T03:43:55.698Z,8.30
2017-11-17T03:46:29.410Z,8.30
2017-11-17T03:49:03.024Z,8.30
2017-11-17T03:51:36.780Z,8.30
2017-11-17T03:54:10.414Z,8.30
2017-11-17T03:56:44.158Z,8.30
2017-11-17T03:59:17.897Z,8.30
2017-11-17T04:01:51.565Z,8.30
2017-11-17T04:04:25.326Z,8.30
2017-11-17T04:06:59.005Z,8.30
2017-11-17T04:09:32.704Z,8.20
2017-11-17T04:12:06.482Z,8.20
2017-11-17T04:14:40.040Z,8.20
2017-11-17T04:17:13.817Z,8.20
2017-11-17T04:19:47.451Z,8.20
2017-11-17T04:22:21.090Z,8.10
2017-11-17T04:24:54.947Z,8.00
2017-11-17T04:27:28.906Z,8.00
2017-11-17T04:30:02.578Z,7.90
2017-11-17T04:32:36.351Z,7.90
2017-11-17T04:35:10.779Z,7.90
2017-11-17T04:37:44.573Z,7.80
2017-11-17T04:40:21.448Z,7.80
2017-11-17T04:42:55.154Z,7.80
2017-11-17T04:45:28.918Z,7.70
2017-11-17T04:48:02.803Z,7.60
2017-11-17T04:50:36.522Z,7.60
2017-11-17T04:53:10.275Z,7.60
2017-11-17T04:55:43.961Z,7.50
2017-11-17T04:58:18.474Z,7.40
2017-11-17T05:00:52.099Z,7.40
2017-11-17T05:03:25.810Z,7.30
2017-11-17T05:05:59.578Z,7.30
2017-11-17T05:08:33.296Z,7.20
2017-11-17T05:11:07.050Z,7.20
2017-11-17T05:13:40.798Z,7.10
2017-11-17T05:16:14.502Z,7.20
2017-11-17T05:18:48.327Z,7.20
2017-11-17T05:21:22.035Z,7.30
2017-11-17T05:23:55.793Z,7.30
2017-11-17T05:26:29.342Z,7.40
2017-11-17T05:29:03.137Z,7.40
2017-11-17T05:31:37.635Z,7.40
2017-11-17T05:34:11.520Z,7.30
2017-11-17T05:36:45.716Z,7.30
2017-11-17T05:39:19.299Z,7.30
2017-11-17T05:41:53.063Z,7.20
2017-11-17T05:44:26.824Z,7.20
2017-11-17T05:47:00.607Z,7.20
2017-11-17T05:49:34.273Z,7.20
2017-11-17T05:52:08.005Z,7.10
2017-11-17T05:54:41.719Z,7.10
2017-11-17T05:57:15.450Z,7.00
2017-11-17T05:59:49.220Z,7.00
2017-11-17T06:02:22.887Z,6.90
2017-11-17T06:04:56.502Z,6.90
2017-11-17T06:07:30.260Z,6.90
2017-11-17T06:10:04.422Z,6.80
2017-11-17T06:12:38.186Z,6.80
2017-11-17T06:15:11.886Z,6.70
2017-11-17T06:17:45.563Z,6.70
2017-11-17T06:20:19.367Z,6.70
2017-11-17T06:22:53.398Z,6.60
2017-11-17T06:25:27.069Z,6.60
2017-11-17T06:28:00.689Z,6.60
2017-11-17T06:30:34.451Z,6.60
2017-11-17T06:33:08.314Z,6.60
2017-11-17T06:35:41.954Z,6.60
2017-11-17T06:38:15.513Z,6.50
2017-11-17T06:40:49.157Z,6.50
2017-11-17T06:43:22.789Z,6.40
2017-11-17T06:45:56.529Z,6.30
2017-11-17T06:48:30.243Z,6.30
2017-11-17T06:51:03.987Z,6.30
2017-11-17T06:53:37.656Z,6.20
2017-11-17T06:56:11.356Z,6.20
2017-11-17T06:58:45.286Z,6.30
2017-11-17T07:01:19.022Z,6.30
2017-11-17T07:03:52.581Z,6.30
2017-11-17T07:06:26.798Z,6.30
2017-11-17T07:09:00.529Z,6.30
2017-11-17T07:11:34.197Z,6.30
2017-11-17T07:14:07.964Z,6.20
2017-11-17T07:16:41.770Z,6.10
2017-11-17T07:19:15.429Z,6.10
2017-11-17T07:21:52.715Z,6.00
2017-11-17T07:24:26.410Z,6.00
2017-11-17T07:27:00.106Z,6.00
2017-11-17T07:29:33.857Z,6.00
2017-11-17T07:32:07.530Z,6.10
2017-11-17T07:34:41.265Z,6.10
2017-11-17T07:37:15.089Z,6.10
2017-11-17T07:39:48.761Z,6.10
2017-11-17T07:42:22.442Z,6.10
2017-11-17T07:44:56.948Z,6.00
2017-11-17T07:47:30.642Z,6.00
2017-11-17T07:50:30.930Z,6.00
2017-11-17T07:53:05.319Z,6.00
2017-11-17T07:55:43.124Z,6.00
2017-11-17T07:58:18.250Z,5.90
2017-11-17T08:00:52.514Z,5.90
2017-11-17T08:03:28.918Z,5.90
2017-11-17T08:06:04.951Z,5.90
2017-11-17T08:08:39.745Z,5.90
2017-11-17T08:14:06.080Z,5.90
2017-11-17T08:16:39.739Z,5.90
2017-11-17T08:19:13.447Z,5.90
2017-11-17T08:21:47.267Z,5.90
2017-11-17T08:24:21.723Z,6.00
2017-11-17T08:26:57.362Z,6.00
2017-11-17T08:29:31.675Z,6.00
2017-11-17T08:32:05.911Z,6.00
2017-11-17T08:34:39.701Z,6.10
2017-11-17T08:39:59.568Z,6.10
2017-11-17T08:42:33.587Z,6.20
2017-11-17T08:45:08.828Z,6.20
2017-11-17T08:47:44.352Z,6.30
2017-11-17T08:50:18.061Z,6.30
2017-11-17T08:52:52.151Z,6.40
2017-11-17T08:55:26.052Z,6.40
2017-11-17T08:58:00.174Z,6.50
2017-11-17T09:00:33.753Z,6.50
2017-11-17T09:03:08.294Z,6.60
2017-11-17T09:05:42.849Z,6.70
2017-11-17T09:08:16.484Z,6.60
2017-11-17T09:10:50.574Z,6.70
2017-11-17T09:13:24.285Z,6.70
2017-11-17T09:15:58.139Z,6.80
2017-11-17T09:18:33.098Z,6.80
2017-11-17T09:21:07.595Z,6.80
2017-11-17T09:23:41.450Z,6.80
2017-11-17T09:26:15.469Z,6.80
2017-11-17T09:28:49.223Z,6.90
2017-11-17T09:31:23.855Z,6.90
2017-11-17T09:33:58.275Z,6.90
2017-11-17T09:36:32.866Z,6.80
2017-11-17T09:39:06.535Z,6.90
2017-11-17T09:41:40.827Z,6.90
2017-11-17T09:44:14.560Z,7.00
2017-11-17T09:46:48.345Z,7.10
2017-11-17T09:49:22.082Z,7.10
2017-11-17T09:51:55.811Z,7.20
2017-11-17T09:54:29.602Z,7.20
2017-11-17T09:57:04.229Z,7.40
2017-11-17T09:59:38.034Z,7.50
2017-11-17T10:02:12.369Z,7.80
2017-11-17T10:04:46.136Z,7.80
2017-11-17T10:07:19.878Z,8.00
2017-11-17T10:09:57.909Z,8.10
2017-11-17T10:12:31.830Z,8.20
2017-11-17T10:15:06.494Z,8.30
2017-11-17T10:17:40.203Z,8.30
2017-11-17T10:20:13.950Z,8.30
2017-11-17T10:22:47.954Z,8.40
2017-11-17T10:25:21.826Z,8.50
2017-11-17T10:27:56.452Z,8.60
2017-11-17T10:30:30.251Z,8.50
2017-11-17T10:33:04.067Z,8.50
2017-11-17T10:35:38.352Z,8.50
2017-11-17T10:38:12.014Z,8.50
2017-11-17T10:40:46.182Z,8.50
2017-11-17T10:43:20.021Z,8.40
2017-11-17T10:45:53.743Z,8.30
2017-11-17T10:48:28.131Z,8.30
2017-11-17T10:51:02.285Z,8.30
2017-11-17T10:53:36.329Z,8.30
2017-11-17T10:56:10.141Z,8.30
2017-11-17T10:58:44.306Z,8.30
2017-11-17T11:01:18.009Z,8.30
2017-11-17T11:06:54.254Z,8.30
2017-11-17T11:09:28.008Z,8.30
2017-11-17T11:12:01.747Z,8.30
2017-11-17T11:14:35.372Z,8.30
2017-11-17T11:17:09.887Z,8.40
2017-11-17T11:19:45.222Z,8.40
2017-11-17T11:22:18.972Z,8.50
2017-11-17T11:24:53.044Z,8.50
2017-11-17T11:27:26.735Z,8.60
2017-11-17T11:30:01.188Z,8.60
2017-11-17T11:32:35.618Z,8.60
2017-11-17T11:35:09.278Z,8.60
2017-11-17T11:37:43.878Z,8.60
2017-11-17T11:40:21.055Z,8.60
2017-11-17T11:42:56.313Z,8.70
2017-11-17T11:45:30.078Z,8.80
2017-11-17T11:48:03.744Z,8.70
2017-11-17T11:50:37.811Z,8.80
2017-11-17T11:53:12.487Z,8.80
2017-11-17T11:55:47.095Z,8.80
2017-11-17T11:58:21.119Z,8.80
2017-11-17T12:00:54.869Z,8.80
2017-11-17T12:03:28.530Z,8.80
2017-11-17T12:06:02.338Z,8.90
2017-11-17T12:08:36.148Z,8.90
2017-11-17T12:11:10.504Z,8.90
2017-11-17T12:13:44.142Z,8.90
2017-11-17T12:16:17.869Z,8.90
2017-11-17T12:18:51.809Z,9.00
2017-11-17T12:21:25.814Z,9.00
2017-11-17T12:23:59.490Z,9.00
2017-11-17T12:26:33.194Z,9.00
2017-11-17T12:29:07.187Z,9.10
2017-11-17T12:31:40.890Z,9.20
2017-11-17T12:34:15.444Z,9.20
2017-11-17T12:36:49.015Z,9.20
2017-11-17T12:39:22.745Z,9.20
2017-11-17T12:41:56.456Z,9.10
2017-11-17T12:44:30.901Z,9.20
2017-11-17T12:47:05.270Z,9.30
2017-11-17T12:49:39.810Z,10.40
2017-11-17T12:52:13.597Z,10.40
2017-11-17T12:54:47.633Z,10.80
2017-11-17T12:57:21.326Z,11.20
2017-11-17T12:59:55.426Z,11.00
2017-11-17T13:02:29.680Z,11.40
2017-11-17T13:05:04.147Z,12.00
2017-11-17T13:07:38.762Z,12.00
2017-11-17T13:10:14.636Z,12.50
2017-11-17T13:12:49.709Z,12.50
2017-11-17T13:18:20.360Z,12.90
2017-11-17T13:20:56.569Z,12.80
2017-11-17T13:23:30.982Z,12.40
2017-11-17T13:26:06.824Z,13.20
2017-11-17T13:28:45.133Z,12.40
2017-11-17T13:31:19.455Z,12.40
2017-11-17T13:33:53.271Z,12.60
2017-11-17T13:36:27.835Z,12.80
2017-11-17T13:39:02.391Z,13.40
2017-11-17T13:41:36.227Z,13.80
2017-11-17T13:44:10.138Z,13.30
2017-11-17T13:46:44.257Z,13.20
2017-11-17T13:49:20.125Z,13.00
2017-11-17T13:51:54.040Z,13.70
2017-11-17T13:54:27.783Z,13.90
2017-11-17T13:57:01.615Z,13.30
2017-11-17T13:59:36.201Z,13.20
2017-11-17T14:02:10.238Z,13.60
2017-11-17T14:04:44.900Z,13.80
2017-11-17T14:07:18.826Z,13.70
2017-11-17T14:09:52.914Z,13.20
2017-11-17T14:12:27.397Z,12.80
2017-11-17T14:15:01.410Z,13.20
2017-11-17T14:17:40.472Z,12.70
2017-11-17T14:20:16.172Z,12.20
2017-11-17T14:22:50.040Z,11.30
2017-11-17T14:25:24.047Z,11.10
2017-11-17T14:27:58.802Z,11.00
2017-11-17T14:30:32.619Z,11.30
2017-11-17T14:33:06.604Z,11.30
2017-11-17T14:35:40.391Z,11.80
2017-11-17T14:38:14.163Z,11.20
2017-11-17T14:40:50.006Z,10.30
2017-11-17T14:43:23.718Z,9.90
2017-11-17T14:45:59.403Z,9.60
2017-11-17T14:48:33.824Z,9.40
2017-11-17T14:51:07.513Z,9.10
2017-11-17T14:53:41.515Z,9.00
2017-11-17T14:56:15.264Z,8.80
2017-11-17T14:58:49.788Z,8.60
2017-11-17T15:01:35.709Z,8.60
2017-11-17T15:04:12.103Z,8.50
2017-11-17T15:06:46.527Z,8.40
2017-11-17T15:09:21.027Z,8.30
2017-11-17T15:11:56.570Z,8.20
2017-11-17T15:14:30.210Z,8.20
2017-11-17T15:17:04.229Z,8.10
2017-11-17T15:19:39.498Z,8.00
2017-11-17T15:22:14.147Z,7.90
2017-11-17T15:24:48.184Z,7.80
2017-11-17T15:27:21.988Z,7.70
2017-11-17T15:29:55.663Z,7.60
2017-11-17T15:32:29.666Z,7.40
2017-11-17T15:35:03.432Z,7.30
2017-11-17T15:37:37.184Z,7.30
2017-11-17T15:40:12.883Z,7.20
2017-11-17T15:42:47.474Z,7.10
2017-11-17T15:45:21.203Z,7.00
2017-11-17T15:47:55.968Z,6.80
2017-11-17T15:50:29.664Z,6.80
2017-11-17T15:53:03.916Z,6.70
2017-11-17T15:55:38.167Z,6.60
2017-11-17T15:58:11.924Z,6.60
2017-11-17T16:00:45.732Z,6.40
2017-11-17T16:03:19.432Z,6.30
2017-11-17T16:05:54.080Z,6.30
2017-11-17T16:08:27.668Z,6.30
2017-11-17T16:11:02.750Z,6.30
2017-11-17T16:13:37.368Z,6.30
2017-11-17T16:16:11.706Z,6.30
2017-11-17T16:18:45.295Z,6.30
2017-11-17T16:21:18.994Z,6.30
2017-11-17T16:23:52.592Z,6.30
2017-11-17T16:26:26.358Z,6.30
2017-11-17T16:29:00.840Z,6.10
2017-11-17T16:31:35.736Z,6.10
2017-11-17T16:34:10.270Z,6.10
2017-11-17T16:36:46.367Z,6.20
2017-11-17T16:39:19.991Z,6.10
2017-11-17T16:41:56.911Z,6.10
2017-11-17T16:44:31.449Z,6.10
2017-11-17T16:47:05.687Z,6.20
2017-11-17T16:49:39.301Z,6.10
2017-11-17T16:52:15.226Z,5.90
2017-11-17T16:54:49.632Z,5.80
2017-11-17T16:57:23.601Z,5.70
2017-11-17T16:59:58.311Z,5.70
2017-11-17T17:02:32.579Z,5.60
2017-11-17T17:05:07.127Z,5.60
2017-11-17T17:07:41.666Z,5.60
2017-11-17T17:10:16.266Z,5.60
2017-11-17T17:12:50.249Z,5.60
2017-11-17T17:15:27.165Z,5.60
2017-11-17T17:18:00.767Z,5.70
2017-11-17T17:20:34.374Z,5.70
2017-11-17T17:23:08.142Z,5.70
2017-11-17T17:25:41.731Z,5.60
2017-11-17T17:28:17.087Z,5.50
2017-11-17T17:30:52.873Z,5.50
2017-11-17T17:33:27.154Z,5.40
2017-11-17T17:36:01.487Z,5.40
2017-11-17T17:38:38.200Z,5.30
2017-11-17T17:41:13.283Z,5.30
2017-11-17T17:43:50.219Z,5.30
2017-11-17T17:46:25.724Z,5.40
2017-11-17T17:49:00.227Z,5.40
2017-11-17T17:51:35.215Z,5.30
2017-11-17T17:54:09.207Z,5.30
2017-11-17T17:56:44.939Z,5.30
2017-11-17T17:59:20.024Z,5.20
2017-11-17T18:01:55.219Z,5.20
2017-11-17T18:04:30.364Z,5.20
2017-11-17T18:07:04.913Z,5.00
2017-11-17T18:10:00.663Z,5.00
2017-11-17T18:12:35.226Z,5.00
2017-11-17T18:15:08.977Z,5.00
2017-11-17T18:17:42.761Z,5.00
2017-11-17T18:20:16.448Z,4.90
2017-11-17T18:22:50.109Z,5.00
2017-11-17T18:25:23.891Z,5.10
2017-11-17T18:27:57.650Z,5.10
2017-11-17T18:30:31.319Z,5.10
2017-11-17T18:33:05.256Z,5.00
2017-11-17T18:35:39.078Z,5.00
2017-11-17T18:38:12.831Z,4.90
2017-11-17T18:40:46.666Z,4.80
2017-11-17T18:43:20.451Z,4.80
2017-11-17T18:45:54.208Z,4.70
2017-11-17T18:48:27.933Z,4.70
2017-11-17T18:51:01.781Z,4.70
2017-11-17T18:53:35.608Z,4.70
2017-11-17T18:56:09.211Z,4.60
2017-11-17T18:58:42.952Z,4.60
2017-11-17T19:01:16.662Z,4.60
2017-11-17T19:03:50.331Z,4.50
2017-11-17T19:06:23.934Z,4.40
2017-11-17T19:08:57.745Z,4.40
2017-11-17T19:11:31.533Z,4.40
2017-11-17T19:14:05.270Z,4.40
2017-11-17T19:16:38.987Z,4.40
2017-11-17T19:19:12.852Z,4.40
2017-11-17T19:21:46.473Z,4.50
2017-11-17T19:24:20.266Z,4.50
2017-11-17T19:26:53.961Z,4.50
2017-11-17T19:29:27.698Z,4.60
2017-11-17T19:32:01.417Z,4.60
2017-11-17T19:34:35.425Z,4.50
2017-11-17T19:37:09.145Z,4.50
2017-11-17T19:39:42.874Z,4.50
2017-11-17T19:42:16.639Z,4.50
2017-11-17T19:44:51.315Z,4.50
2017-11-17T19:47:26.009Z,4.50
2017-11-17T19:49:59.650Z,4.50
2017-11-17T19:52:34.838Z,4.50
2017-11-17T19:55:09.209Z,4.40
2017-11-17T19:57:43.137Z,4.40
2017-11-17T20:00:17.726Z,4.30
2017-11-17T20:02:52.951Z,4.30
2017-11-17T20:05:26.751Z,4.30
2017-11-17T20:08:00.487Z,4.20
2017-11-17T20:10:34.304Z,4.20
2017-11-17T20:13:08.933Z,4.10
2017-11-17T20:15:43.517Z,4.20
2017-11-17T20:18:17.072Z,4.20
2017-11-17T20:20:51.634Z,4.20
2017-11-17T20:23:26.204Z,4.20
2017-11-17T20:26:02.079Z,4.20
2017-11-17T20:28:35.662Z,4.10
2017-11-17T20:31:14.278Z,4.10
2017-11-17T20:33:48.813Z,4.00
2017-11-17T20:36:23.394Z,3.90
2017-11-17T20:38:57.200Z,3.80
2017-11-17T20:41:30.943Z,3.80
2017-11-17T20:44:05.553Z,3.70
2017-11-17T20:46:39.222Z,3.70
2017-11-17T20:49:12.974Z,3.60
2017-11-17T20:51:46.741Z,3.60
2017-11-17T20:54:21.286Z,3.60
2017-11-17T20:56:54.970Z,3.60
2017-11-17T20:59:28.744Z,3.70
2017-11-17T21:02:02.385Z,3.70
2017-11-17T21:04:37.920Z,3.80
2017-11-17T21:07:13.755Z,3.90
2017-11-17T21:09:47.324Z,4.00
2017-11-17T21:12:22.040Z,4.00
2017-11-17T21:14:55.774Z,4.10
2017-11-17T21:17:29.595Z,4.20
2017-11-17T21:20:03.362Z,4.30
2017-11-17T21:22:37.182Z,4.30
2017-11-17T21:25:10.819Z,4.40
2017-11-17T21:27:44.595Z,4.50
2017-11-17T21:30:18.338Z,4.50
2017-11-17T21:32:52.964Z,4.50
2017-11-17T21:35:28.226Z,4.60
2017-11-17T21:38:01.817Z,4.60
2017-11-17T21:40:35.597Z,4.60
2017-11-17T21:43:09.371Z,4.70
2017-11-17T21:45:43.082Z,4.70
2017-11-17T21:48:16.834Z,4.80
2017-11-17T21:50:50.656Z,4.80
2017-11-17T21:53:24.383Z,4.80
2017-11-17T21:55:58.921Z,4.90
2017-11-17T21:58:32.543Z,4.90
2017-11-17T22:01:06.272Z,4.90
2017-11-17T22:03:40.039Z,5.00
2017-11-17T22:06:13.806Z,5.00
2017-11-17T22:08:47.525Z,5.00
2017-11-17T22:11:21.230Z,5.10
2017-11-17T22:13:54.948Z,5.10
2017-11-17T22:16:28.708Z,5.10
2017-11-17T22:19:04.080Z,5.20
2017-11-17T22:21:37.924Z,5.20
2017-11-17T22:24:11.708Z,5.20
2017-11-17T22:26:45.650Z,5.30
2017-11-17T22:29:19.538Z,5.30
2017-11-17T22:31:55.044Z,5.40
2017-11-17T22:34:28.661Z,5.40
2017-11-17T22:37:02.444Z,5.40
2017-11-17T22:39:36.159Z,5.50
2017-11-17T22:42:09.902Z,5.40
2017-11-17T22:44:44.405Z,5.40
2017-11-17T22:47:18.182Z,5.40
2017-11-17T22:49:51.931Z,5.40
2017-11-17T22:52:25.710Z,5.30
2017-11-17T22:54:59.411Z,5.30
2017-11-17T22:57:33.223Z,5.30
2017-11-17T23:00:07.744Z,5.30
2017-11-17T23:02:41.447Z,5.30
2017-11-17T23:05:15.173Z,5.30
2017-11-17T23:07:48.939Z,5.30
2017-11-17T23:10:23.617Z,5.20
2017-11-17T23:12:57.369Z,5.20
2017-11-17T23:15:31.077Z,5.20
2017-11-17T23:18:04.876Z,5.10
2017-11-17T23:20:38.588Z,5.10
2017-11-17T23:23:12.394Z,5.00
2017-11-17T23:25:52.017Z,5.00
2017-11-17T23:37:37.219Z,5.20
2017-11-17T23:40:10.917Z,5.20
2017-11-17T23:42:45.298Z,5.20
2017-11-17T23:45:19.871Z,5.10
2017-11-17T23:47:53.427Z,5.10
2017-11-17T23:50:28.178Z,5.00
2017-11-17T23:53:01.904Z,5.00
2017-11-17T23:55:36.422Z,5.00
2017-11-17T23:58:10.838Z,5.00
